SHMÚ vydal meteorologické výstrahy na Ground ice Display warnings

TAF

Aerodrome Forecast TAF

TAF description (Slovak)

19.11.2018 - 17:00 UTC

TAF LZIB 191700Z 1918/2018 06005KT 9999 -RA SCT017 OVC030
    BECMG 2003/2005 08014KT BKN013 OVC025
    TEMPO 2005/2011 4000 RASN OVC008
    BECMG 2015/2017 SCT005 BKN020=
TAF LZKZ 191700Z 1918/2018 01010KT 9999 BKN030
    BECMG 2012/2014 -RA SCT014 OVC030
    TEMPO 2012/2018 5000 RA OVC012=
TAF LZTT 191700Z 1918/2018 07006KT 9999 OVC007
    PROB40 TEMPO 1922/2007 4500 -SG BR BKN003
    TEMPO 2008/2012 SCT010 BKN030
    BECMG 2012/2014 5000 -SN BKN010 OVC020
    PROB30 TEMPO 2014/2018 2000 SN OVC004=

19.11.2018 - 17:00 UTC

TAF LZSL 191700Z 1918/2003 VRB02KT 9999 BKN030
    PROB40 TEMPO 1922/2003 4500 -SG BR OVC008=
TAF LZPP 191700Z 1918/2003 01004KT 9999 OVC034
    TEMPO 1919/1923 -DZRA BKN014 OVC030=
TAF LZZI 191700Z 1918/2003 05004KT CAVOK
    TEMPO 2001/2003 4000 BR NSC=

19.11.2018 - 14:00 UTC

TAF LZSL 191400Z 1915/2000 VRB02KT 9999 BKN040
    BECMG 1920/1922 4500 BR SCT012
    TEMPO 1920/2000 BKN008=
TAF LZPP 191400Z 1915/2000 01004KT 9999 BKN045 OVC070
    BECMG 1919/1921 BKN014=
TAF LZZI 191400Z 1915/2000 05008KT 9999 SCT060
    BECMG 1921/1923 VRB02KT=

19.11.2018 - 11:00 UTC

TAF LZIB 191100Z 1912/2012 06008KT 9999 -RA SCT015 OVC090
    TEMPO 1917/2005 BKN014 OVC060
    BECMG 2003/2005 08014KT
    TEMPO 2005/2011 4000 RASN BKN008 OVC020
    TEMPO 2009/2012 09015G25KT=
TAF LZKZ 191100Z 1912/2012 01016KT CAVOK
    BECMG 1920/1922 02008KT=
TAF LZTT 191100Z 1912/2012 06010KT 9999 FEW015 BKN040
    TEMPO 1912/1920 5000 -SN BKN009 OVC040
    BECMG 1918/1920 08005KT=

19.11.2018 - 11:00 UTC

TAF LZSL 191100Z 1912/1921 VRB02KT 9999 SCT030 BKN055
    BECMG 1918/1920 4500 BR SCT012
    TEMPO 1918/1921 BKN012=
TAF LZPP 191100Z 1912/1921 01006KT 9999 BKN045 OVC070
    BECMG 1919/1921 BKN014=
TAF LZZI 191100Z 1912/1921 04010KT 9999 SCT060 BKN100
    BECMG 1918/1920 04004KT=

19.11.2018 - 08:00 UTC

TAF COR LZSL 190837Z 1909/1918 VRB02KT 9999 SCT030 BKN045
    PROB30 TEMPO 1909/1910 2800 -SN BKN007 OVC030
    BECMG 1916/1918 2500 BR BKN012 BKN060=

19.11.2018 - 08:00 UTC

TAF LZSL 190800Z 1909/1918 VRB02KT 4000 BR SCT030 BKN045
    TEMPO 1909/1910 1800 -SN BKN007 OVC030
    BECMG 1916/1918 2500 BR BKN012 BKN060=
TAF LZPP 190800Z 1909/1918 01006KT 9999 BKN045 OVC070
    BECMG 1916/1918 FEW007 OVC014=
TAF LZZI 190800Z 1909/1918 04006KT 9999 SCT030 BKN065=

19.11.2018 - 05:00 UTC

TAF AMD LZSL 190706Z 1907/1915 VRB02KT 2000 BR FEW002 SCT030 BKN045
    TEMPO 1907/1910 1300 -RASN BR BKN010 OVC030
    BECMG 1910/1912 4000 BR=

19.11.2018 - 05:00 UTC

TAF LZIB 190500Z 1906/2006 04006KT 7000 -SNRA FEW009 SCT016 OVC030
    TEMPO 1908/1912 3000 -SNRA BR BKN012 OVC025
    BECMG 1913/1915 09010KT 9999 SCT030 OVC042=
TAF LZKZ 190500Z 1906/2006 01014KT CAVOK
    TEMPO 1909/1914 5000 -SNRA BR SCT015 OVC027
    BECMG 1915/1917 9999 SCT030 BKN048=
TAF LZTT 190500Z 1906/2006 07007KT 9999 FEW034 OVC060
    TEMPO 1910/1915 4000 -SN BKN010 OVC020=

19.11.2018 - 05:00 UTC

TAF LZSL 190500Z 1906/1915 00000KT 3000 BCFG FEW002 SCT030 BKN045
    BECMG 1906/1908 VRB02KT 4000 BR SCT025 BKN040
    TEMPO 1908/1915 1500 RASN BR SCT010 OVC022=
TAF LZPP 190500Z 1906/1915 36008KT 9999 OVC045
    BECMG 1908/1910 8000 -SNRA FEW010 SCT015 BKN030
    TEMPO 1910/1915 3000 RASN SCT007 OVC020=
TAF LZZI 190500Z 1906/1915 06005KT CAVOK
    BECMG 1908/1910 9999 SCT017 BKN037
    PROB40 TEMPO 1910/1912 7000 -RASN FEW015 OVC030=

19.11.2018 - 02:00 UTC

TAF AMD LZSL 190225Z 1903/1912 00000KT 0300 FZFG BKN001
    BECMG 1904/1906 34004KT 4000 BCFG SCT002 BKN040
    BECMG 1907/1909 3000 SN BR BKN025 OVC035=

19.11.2018 - 02:00 UTC

TAF LZSL 190200Z 1903/1912 00000KT 5000 BR FEW045 BKN090
    BECMG 1903/1905 34004KT 7000 NSC
    BECMG 1907/1909 3000 SNRA BKN025 OVC035=
TAF LZZI 190200Z 1903/1912 VRB02KT CAVOK
    BECMG 1903/1905 05005KT
    TEMPO 1909/1912 4000 -SN SCT015 OVC030=

skok na menu ↑


skok na začiatok stránky ↑